THA644 VTBS-RJGG
Flight info
| Callsign | THA644 |
|---|---|
| Flight time | 4h 46m |
| Altitude | 39000 |
| Route | LIPLI Y16 BUTRA A1 PAPRA/K0902F390 A1 IKELA/N0488F390 DCT MORTU DCT NOBAD DCT KAPLI G86 HCN J7 PICHU Q13 IGURU Y26 SEPIA B597 MADOG M750 IMPAL Y755 CARDS |
| Aircraft | A359/H-SDE2E3GHIJ1J4J5M1RWYZ/LB2D1 |
Departure
| Time | 2026-05-05 17:43 |
|---|---|
| Airport | Suvarnabhumi Airport (VTBS) |
Arrival
| Time | 2026-05-05 22:29 |
|---|---|
| Airport | Chubu Centrair International Airport (RJGG) |
| Time | Latitude | Longitude | Altitude | Speed | Heading |
|---|---|---|---|---|---|
| 2026-05-05 17:22 | 13.68225 | 100.75217 | 19 ft | 0 kts | 194° |
| 2026-05-05 17:31 | 13.68228 | 100.75218 | 19 ft | 3 kts | 194° |
| 2026-05-05 17:31 | 13.68254 | 100.75225 | 21 ft | 4 kts | 194° |
| 2026-05-05 17:31 | 13.68280 | 100.75231 | 22 ft | 3 kts | 194° |
| 2026-05-05 17:31 | 13.68300 | 100.75235 | 21 ft | 4 kts | 166° |
| 2026-05-05 17:32 | 13.68317 | 100.75227 | 22 ft | 4 kts | 124° |
| 2026-05-05 17:32 | 13.68328 | 100.75204 | 23 ft | 4 kts | 107° |
| 2026-05-05 17:32 | 13.68331 | 100.75192 | 19 ft | 4 kts | 104° |
| 2026-05-05 17:35 | 13.68326 | 100.75215 | 23 ft | 6 kts | 102° |
| 2026-05-05 17:36 | 13.68314 | 100.75270 | 20 ft | 10 kts | 105° |
| 2026-05-05 17:36 | 13.68290 | 100.75348 | 19 ft | 13 kts | 107° |
| 2026-05-05 17:36 | 13.68268 | 100.75441 | 19 ft | 14 kts | 103° |
| 2026-05-05 17:36 | 13.68251 | 100.75544 | 19 ft | 15 kts | 83° |
| 2026-05-05 17:37 | 13.68317 | 100.75588 | 19 ft | 12 kts | 14° |
| 2026-05-05 17:37 | 13.68372 | 100.75602 | 19 ft | 13 kts | 14° |
| 2026-05-05 17:37 | 13.68498 | 100.75636 | 19 ft | 15 kts | 14° |
| 2026-05-05 17:37 | 13.68606 | 100.75665 | 19 ft | 17 kts | 14° |
| 2026-05-05 17:38 | 13.68724 | 100.75696 | 19 ft | 18 kts | 14° |
| 2026-05-05 17:38 | 13.68851 | 100.75729 | 19 ft | 20 kts | 14° |
| 2026-05-05 17:38 | 13.68987 | 100.75765 | 19 ft | 21 kts | 14° |
| 2026-05-05 17:38 | 13.69132 | 100.75804 | 19 ft | 22 kts | 14° |
| 2026-05-05 17:39 | 13.69256 | 100.75844 | 19 ft | 7 kts | 45° |
| 2026-05-05 17:39 | 13.69253 | 100.75863 | 19 ft | 2 kts | 111° |
| 2026-05-05 17:39 | 13.69243 | 100.75885 | 19 ft | 5 kts | 114° |
| 2026-05-05 17:39 | 13.69226 | 100.75921 | 19 ft | 7 kts | 118° |
| 2026-05-05 17:40 | 13.69208 | 100.75966 | 19 ft | 0 kts | 107° |
| 2026-05-05 17:41 | 13.69208 | 100.75967 | 19 ft | 0 kts | 107° |
| 2026-05-05 17:41 | 13.69200 | 100.75993 | 19 ft | 7 kts | 107° |
| 2026-05-05 17:41 | 13.69171 | 100.76050 | 18 ft | 11 kts | 132° |
| 2026-05-05 17:41 | 13.69112 | 100.76088 | 18 ft | 5 kts | 182° |
| 2026-05-05 17:42 | 13.69099 | 100.76085 | 18 ft | 0 kts | 194° |
| 2026-05-05 17:42 | 13.69046 | 100.76071 | 19 ft | 31 kts | 194° |
| 2026-05-05 17:42 | 13.68606 | 100.75956 | 23 ft | 97 kts | 194° |
| 2026-05-05 17:42 | 13.67758 | 100.75733 | 18 ft | 153 kts | 194° |
| 2026-05-05 17:43 | 13.66652 | 100.75428 | 518 ft | 158 kts | 196° |
| 2026-05-05 17:43 | 13.65614 | 100.75108 | 1194 ft | 157 kts | 198° |
| 2026-05-05 17:43 | 13.64556 | 100.74939 | 1859 ft | 155 kts | 180° |
| 2026-05-05 17:43 | 13.63424 | 100.75012 | 2215 ft | 169 kts | 174° |
| 2026-05-05 17:44 | 13.62236 | 100.75106 | 2682 ft | 173 kts | 176° |
| 2026-05-05 17:44 | 13.61062 | 100.75333 | 3151 ft | 178 kts | 159° |
| 2026-05-05 17:44 | 13.60053 | 100.76164 | 3355 ft | 200 kts | 125° |
| 2026-05-05 17:44 | 13.59327 | 100.77481 | 3579 ft | 224 kts | 117° |
| 2026-05-05 17:45 | 13.58586 | 100.78998 | 3879 ft | 245 kts | 117° |
| 2026-05-05 17:45 | 13.58056 | 100.80058 | 4132 ft | 256 kts | 118° |
| 2026-05-05 17:45 | 13.57380 | 100.81788 | 4671 ft | 266 kts | 101° |
| 2026-05-05 17:45 | 13.57249 | 100.84340 | 5565 ft | 271 kts | 90° |
| 2026-05-05 17:46 | 13.57256 | 100.85629 | 6035 ft | 273 kts | 90° |
| 2026-05-05 17:46 | 13.57266 | 100.87590 | 6712 ft | 276 kts | 90° |
| 2026-05-05 17:46 | 13.57265 | 100.89578 | 7405 ft | 279 kts | 90° |
| 2026-05-05 17:46 | 13.57259 | 100.91578 | 8133 ft | 281 kts | 90° |
| 2026-05-05 17:47 | 13.57246 | 100.93599 | 8879 ft | 284 kts | 91° |
| 2026-05-05 17:47 | 13.57231 | 100.95638 | 9662 ft | 286 kts | 90° |
| 2026-05-05 17:47 | 13.57215 | 100.97698 | 10299 ft | 293 kts | 90° |
| 2026-05-05 17:47 | 13.57198 | 100.99853 | 10639 ft | 310 kts | 90° |
| 2026-05-05 17:48 | 13.57325 | 101.02124 | 10928 ft | 327 kts | 81° |
| 2026-05-05 17:48 | 13.58056 | 101.04390 | 11205 ft | 343 kts | 62° |
| 2026-05-05 17:48 | 13.59338 | 101.06518 | 11519 ft | 357 kts | 56° |
| 2026-05-05 17:48 | 13.60755 | 101.08654 | 11936 ft | 365 kts | 56° |
| 2026-05-05 17:49 | 13.62193 | 101.10831 | 12437 ft | 371 kts | 56° |
| 2026-05-05 17:49 | 13.63642 | 101.13046 | 12956 ft | 375 kts | 56° |
| 2026-05-05 17:49 | 13.65098 | 101.15283 | 13484 ft | 379 kts | 56° |
| 2026-05-05 17:49 | 13.66553 | 101.17525 | 13955 ft | 383 kts | 56° |
| 2026-05-05 17:50 | 13.68036 | 101.19814 | 14437 ft | 386 kts | 56° |
| 2026-05-05 17:50 | 13.69528 | 101.22119 | 14882 ft | 389 kts | 57° |
| 2026-05-05 17:50 | 13.71032 | 101.24445 | 15372 ft | 392 kts | 56° |
| 2026-05-05 17:50 | 13.72546 | 101.26787 | 15836 ft | 394 kts | 57° |
| 2026-05-05 17:51 | 13.74068 | 101.29144 | 16301 ft | 397 kts | 56° |
| 2026-05-05 17:51 | 13.75601 | 101.31517 | 16772 ft | 400 kts | 56° |
| 2026-05-05 17:51 | 13.77146 | 101.33911 | 17223 ft | 403 kts | 56° |
| 2026-05-05 17:51 | 13.78699 | 101.36317 | 17673 ft | 406 kts | 56° |
| 2026-05-05 17:52 | 13.80268 | 101.38748 | 18118 ft | 409 kts | 56° |
| 2026-05-05 17:52 | 13.81845 | 101.41193 | 18498 ft | 411 kts | 56° |
| 2026-05-05 17:52 | 13.83432 | 101.43654 | 18882 ft | 414 kts | 56° |
| 2026-05-05 17:52 | 13.85028 | 101.46131 | 19270 ft | 417 kts | 56° |
| 2026-05-05 17:53 | 13.86635 | 101.48622 | 19666 ft | 419 kts | 56° |
| 2026-05-05 17:53 | 13.88253 | 101.51130 | 20018 ft | 422 kts | 56° |
| 2026-05-05 17:53 | 13.89881 | 101.53658 | 20394 ft | 425 kts | 56° |
| 2026-05-05 17:53 | 13.91516 | 101.56197 | 20754 ft | 428 kts | 56° |
| 2026-05-05 17:54 | 13.93163 | 101.58757 | 21130 ft | 431 kts | 56° |
| 2026-05-05 17:54 | 13.94827 | 101.61338 | 21521 ft | 434 kts | 56° |
| 2026-05-05 17:54 | 13.96496 | 101.63933 | 21914 ft | 436 kts | 56° |
| 2026-05-05 17:54 | 13.98175 | 101.66548 | 22303 ft | 439 kts | 56° |
| 2026-05-05 17:55 | 13.99860 | 101.69176 | 22668 ft | 442 kts | 56° |
| 2026-05-05 17:55 | 14.01558 | 101.71818 | 22991 ft | 444 kts | 56° |
| 2026-05-05 17:55 | 14.03271 | 101.74482 | 23353 ft | 447 kts | 56° |
| 2026-05-05 17:55 | 14.04992 | 101.77160 | 23715 ft | 450 kts | 56° |
| 2026-05-05 17:56 | 14.06722 | 101.79851 | 24038 ft | 452 kts | 56° |
| 2026-05-05 17:56 | 14.08439 | 101.82524 | 24359 ft | 454 kts | 56° |
| 2026-05-05 17:56 | 14.10204 | 101.85273 | 24695 ft | 456 kts | 56° |
| 2026-05-05 17:56 | 14.11933 | 101.87970 | 25056 ft | 458 kts | 56° |
| 2026-05-05 17:57 | 14.13691 | 101.90712 | 25408 ft | 460 kts | 56° |
| 2026-05-05 17:57 | 14.15460 | 101.93474 | 25781 ft | 463 kts | 56° |
| 2026-05-05 17:57 | 14.17112 | 101.96328 | 26161 ft | 466 kts | 63° |
| 2026-05-05 17:57 | 14.18380 | 101.99404 | 26581 ft | 468 kts | 69° |
| 2026-05-05 17:58 | 14.19470 | 102.02576 | 26976 ft | 470 kts | 71° |
| 2026-05-05 17:58 | 14.20486 | 102.05788 | 27363 ft | 473 kts | 72° |
| 2026-05-05 17:58 | 14.21481 | 102.09038 | 27761 ft | 476 kts | 72° |
| 2026-05-05 17:58 | 14.22473 | 102.12295 | 28162 ft | 479 kts | 72° |
| 2026-05-05 17:59 | 14.23483 | 102.15581 | 28564 ft | 481 kts | 72° |
| 2026-05-05 17:59 | 14.24503 | 102.18868 | 28951 ft | 484 kts | 72° |
| 2026-05-05 17:59 | 14.25541 | 102.22184 | 29325 ft | 487 kts | 72° |
| 2026-05-05 17:59 | 14.26589 | 102.25513 | 29696 ft | 489 kts | 71° |
| 2026-05-05 18:00 | 14.27646 | 102.28857 | 30031 ft | 492 kts | 71° |
| 2026-05-05 18:00 | 14.28709 | 102.32222 | 30302 ft | 495 kts | 71° |
| 2026-05-05 18:00 | 14.29775 | 102.35600 | 30604 ft | 497 kts | 72° |
| 2026-05-05 18:00 | 14.30849 | 102.39001 | 30901 ft | 499 kts | 72° |
| 2026-05-05 18:01 | 14.31923 | 102.42409 | 31175 ft | 501 kts | 72° |
| 2026-05-05 18:01 | 14.33000 | 102.45835 | 31461 ft | 503 kts | 72° |
| 2026-05-05 18:01 | 14.34081 | 102.49275 | 31729 ft | 505 kts | 72° |
| 2026-05-05 18:01 | 14.35165 | 102.52725 | 31994 ft | 507 kts | 72° |
| 2026-05-05 18:02 | 14.36254 | 102.56190 | 32242 ft | 509 kts | 72° |
| 2026-05-05 18:02 | 14.37345 | 102.59669 | 32534 ft | 510 kts | 72° |
| 2026-05-05 18:02 | 14.38455 | 102.63140 | 32891 ft | 507 kts | 71° |
| 2026-05-05 18:02 | 14.39645 | 102.66562 | 33177 ft | 508 kts | 69° |
| 2026-05-05 18:03 | 14.40900 | 102.69976 | 33526 ft | 508 kts | 69° |
| 2026-05-05 18:03 | 14.42168 | 102.73368 | 33880 ft | 507 kts | 69° |
| 2026-05-05 18:03 | 14.43431 | 102.76754 | 34165 ft | 506 kts | 69° |
| 2026-05-05 18:03 | 14.44667 | 102.80105 | 34426 ft | 506 kts | 69° |
| 2026-05-05 18:04 | 14.45907 | 102.83502 | 34699 ft | 506 kts | 69° |
| 2026-05-05 18:04 | 14.47141 | 102.86902 | 34972 ft | 506 kts | 69° |
| 2026-05-05 18:04 | 14.48369 | 102.90304 | 35247 ft | 506 kts | 69° |
| 2026-05-05 18:04 | 14.49595 | 102.93705 | 35493 ft | 506 kts | 69° |
| 2026-05-05 18:05 | 14.50821 | 102.97106 | 35778 ft | 505 kts | 69° |
| 2026-05-05 18:05 | 14.52043 | 103.00509 | 36047 ft | 505 kts | 69° |
| 2026-05-05 18:05 | 14.53264 | 103.03904 | 36300 ft | 505 kts | 69° |
| 2026-05-05 18:05 | 14.54485 | 103.07301 | 36554 ft | 505 kts | 69° |
| 2026-05-05 18:06 | 14.55706 | 103.10698 | 36814 ft | 504 kts | 69° |
| 2026-05-05 18:06 | 14.56531 | 103.12993 | 36976 ft | 504 kts | 69° |
| 2026-05-05 18:06 | 14.58143 | 103.17480 | 37300 ft | 504 kts | 69° |
| 2026-05-05 18:06 | 14.59360 | 103.20869 | 37540 ft | 503 kts | 69° |
| 2026-05-05 18:07 | 14.60576 | 103.24257 | 37793 ft | 503 kts | 69° |
| 2026-05-05 18:07 | 14.61791 | 103.27646 | 38010 ft | 503 kts | 69° |
| 2026-05-05 18:07 | 14.63003 | 103.31023 | 38234 ft | 502 kts | 69° |
| 2026-05-05 18:07 | 14.64216 | 103.34409 | 38441 ft | 502 kts | 69° |
| 2026-05-05 18:08 | 14.65426 | 103.37789 | 38640 ft | 502 kts | 69° |
| 2026-05-05 18:08 | 14.66636 | 103.41170 | 38826 ft | 502 kts | 69° |
| 2026-05-05 18:08 | 14.67845 | 103.44550 | 38874 ft | 503 kts | 69° |
| 2026-05-05 18:09 | 14.70264 | 103.51316 | 38879 ft | 502 kts | 69° |
| 2026-05-05 18:09 | 14.72684 | 103.58093 | 38880 ft | 503 kts | 69° |
| 2026-05-05 18:10 | 14.75102 | 103.64873 | 38878 ft | 503 kts | 69° |
| 2026-05-05 18:10 | 14.77521 | 103.71661 | 38883 ft | 504 kts | 69° |
| 2026-05-05 18:11 | 14.79941 | 103.78460 | 38877 ft | 504 kts | 69° |
| 2026-05-05 18:11 | 14.82320 | 103.85230 | 38883 ft | 505 kts | 70° |
| 2026-05-05 18:12 | 14.84674 | 103.92068 | 38876 ft | 505 kts | 70° |
| 2026-05-05 18:12 | 14.87028 | 103.98911 | 38880 ft | 506 kts | 70° |
| 2026-05-05 18:13 | 14.89390 | 104.05762 | 38877 ft | 506 kts | 70° |
| 2026-05-05 18:13 | 14.91755 | 104.12620 | 38883 ft | 507 kts | 70° |
| 2026-05-05 18:14 | 14.94119 | 104.19479 | 38877 ft | 506 kts | 70° |
| 2026-05-05 18:14 | 14.96480 | 104.26339 | 38878 ft | 506 kts | 70° |
| 2026-05-05 18:15 | 14.98835 | 104.33188 | 38880 ft | 505 kts | 70° |
| 2026-05-05 18:15 | 15.01186 | 104.40036 | 38881 ft | 505 kts | 70° |
| 2026-05-05 18:16 | 15.03534 | 104.46879 | 38881 ft | 504 kts | 70° |
| 2026-05-05 18:16 | 15.05876 | 104.53714 | 38881 ft | 504 kts | 70° |
| 2026-05-05 18:17 | 15.08216 | 104.60551 | 38887 ft | 504 kts | 70° |
| 2026-05-05 18:17 | 15.10555 | 104.67392 | 38893 ft | 504 kts | 70° |
| 2026-05-05 18:18 | 15.12892 | 104.74232 | 38901 ft | 504 kts | 70° |
| 2026-05-05 18:18 | 15.15211 | 104.81029 | 38907 ft | 504 kts | 70° |
| 2026-05-05 18:19 | 15.17541 | 104.87867 | 38911 ft | 504 kts | 70° |
| 2026-05-05 18:19 | 15.19868 | 104.94701 | 38912 ft | 504 kts | 70° |
| 2026-05-05 18:20 | 15.22195 | 105.01546 | 38908 ft | 504 kts | 70° |
| 2026-05-05 18:20 | 15.24519 | 105.08388 | 38897 ft | 504 kts | 70° |
| 2026-05-05 18:21 | 15.26840 | 105.15229 | 38889 ft | 504 kts | 70° |
| 2026-05-05 18:21 | 15.29164 | 105.22085 | 38881 ft | 504 kts | 70° |
| 2026-05-05 18:22 | 15.31488 | 105.28942 | 38883 ft | 505 kts | 70° |
| 2026-05-05 18:22 | 15.33807 | 105.35811 | 38881 ft | 505 kts | 70° |
| 2026-05-05 18:23 | 15.36123 | 105.42677 | 38883 ft | 505 kts | 70° |
| 2026-05-05 18:23 | 15.38445 | 105.49552 | 38884 ft | 505 kts | 70° |
| 2026-05-05 18:24 | 15.40763 | 105.56427 | 38882 ft | 505 kts | 70° |
| 2026-05-05 18:24 | 15.42684 | 105.63438 | 38887 ft | 506 kts | 76° |
| 2026-05-05 18:25 | 15.44301 | 105.70535 | 38882 ft | 506 kts | 77° |
| 2026-05-05 18:25 | 15.45861 | 105.77602 | 38886 ft | 506 kts | 77° |
| 2026-05-05 18:26 | 15.47429 | 105.84713 | 38893 ft | 506 kts | 77° |
| 2026-05-05 18:26 | 15.49004 | 105.91819 | 38896 ft | 506 kts | 77° |
| 2026-05-05 18:27 | 15.50581 | 105.98935 | 38894 ft | 506 kts | 77° |
| 2026-05-05 18:27 | 15.52145 | 106.06045 | 38903 ft | 507 kts | 77° |
| 2026-05-05 18:28 | 15.54505 | 106.16707 | 38907 ft | 506 kts | 77° |
| 2026-05-05 18:28 | 15.56081 | 106.23815 | 38904 ft | 506 kts | 77° |
| 2026-05-05 18:29 | 15.57639 | 106.30921 | 38910 ft | 506 kts | 77° |
| 2026-05-05 18:29 | 15.59207 | 106.38048 | 38907 ft | 507 kts | 77° |
| 2026-05-05 18:30 | 15.60769 | 106.45180 | 38907 ft | 508 kts | 77° |
| 2026-05-05 18:30 | 15.62330 | 106.52335 | 38906 ft | 509 kts | 77° |
| 2026-05-05 18:31 | 15.63882 | 106.59440 | 38907 ft | 508 kts | 77° |
| 2026-05-05 18:31 | 15.65448 | 106.66596 | 38917 ft | 508 kts | 77° |
| 2026-05-05 18:32 | 15.67018 | 106.73751 | 38923 ft | 509 kts | 77° |
| 2026-05-05 18:32 | 15.68578 | 106.80924 | 38931 ft | 510 kts | 77° |
| 2026-05-05 18:33 | 15.70139 | 106.88118 | 38937 ft | 511 kts | 77° |
| 2026-05-05 18:33 | 15.71700 | 106.95327 | 38947 ft | 512 kts | 77° |
| 2026-05-05 18:34 | 15.73260 | 107.02533 | 38958 ft | 512 kts | 77° |
| 2026-05-05 18:34 | 15.74822 | 107.09758 | 38968 ft | 513 kts | 77° |
| 2026-05-05 18:35 | 15.76379 | 107.16976 | 38958 ft | 513 kts | 77° |
| 2026-05-05 18:35 | 15.78124 | 107.24157 | 38964 ft | 513 kts | 73° |
| 2026-05-05 18:36 | 15.79891 | 107.30035 | 38970 ft | 513 kts | 71° |
| 2026-05-05 18:36 | 15.82042 | 107.37104 | 38962 ft | 514 kts | 72° |
| 2026-05-05 18:37 | 15.84127 | 107.44201 | 38956 ft | 514 kts | 72° |
| 2026-05-05 18:37 | 15.86170 | 107.51306 | 38946 ft | 514 kts | 72° |
| 2026-05-05 18:38 | 15.88203 | 107.58420 | 38947 ft | 513 kts | 72° |
| 2026-05-05 18:38 | 15.90235 | 107.65527 | 38935 ft | 513 kts | 72° |
| 2026-05-05 18:39 | 15.92221 | 107.72654 | 38932 ft | 514 kts | 73° |
| 2026-05-05 18:39 | 15.94154 | 107.79802 | 38939 ft | 514 kts | 73° |
| 2026-05-05 18:40 | 15.96084 | 107.86941 | 38933 ft | 513 kts | 73° |
| 2026-05-05 18:40 | 15.98039 | 107.94074 | 38918 ft | 513 kts | 72° |
| 2026-05-05 18:41 | 16.00035 | 108.01146 | 38916 ft | 513 kts | 72° |
| 2026-05-05 18:41 | 16.02045 | 108.08259 | 38917 ft | 513 kts | 72° |
| 2026-05-05 18:42 | 16.04041 | 108.15368 | 38913 ft | 513 kts | 72° |
| 2026-05-05 18:42 | 16.06871 | 108.22116 | 38922 ft | 508 kts | 56° |
| 2026-05-05 18:43 | 16.10683 | 108.28291 | 38905 ft | 507 kts | 54° |
| 2026-05-05 18:43 | 16.14647 | 108.34364 | 38917 ft | 507 kts | 53° |
| 2026-05-05 18:44 | 16.18615 | 108.40434 | 38907 ft | 508 kts | 54° |
| 2026-05-05 18:44 | 16.22566 | 108.46525 | 38906 ft | 508 kts | 54° |
| 2026-05-05 18:45 | 16.26508 | 108.52632 | 38907 ft | 508 kts | 54° |
| 2026-05-05 18:45 | 16.30448 | 108.58744 | 38905 ft | 509 kts | 54° |
| 2026-05-05 18:46 | 16.34391 | 108.64864 | 38900 ft | 509 kts | 54° |
| 2026-05-05 18:46 | 16.38365 | 108.70975 | 38894 ft | 509 kts | 53° |
| 2026-05-05 18:47 | 16.42427 | 108.77025 | 38901 ft | 510 kts | 52° |
| 2026-05-05 18:47 | 16.46494 | 108.83073 | 38893 ft | 510 kts | 53° |
| 2026-05-05 18:48 | 16.50548 | 108.89139 | 38880 ft | 510 kts | 53° |
| 2026-05-05 18:48 | 16.54591 | 108.95211 | 38891 ft | 510 kts | 53° |
| 2026-05-05 18:49 | 16.58610 | 109.01298 | 38881 ft | 510 kts | 53° |
| 2026-05-05 18:49 | 16.62568 | 109.07404 | 38880 ft | 510 kts | 54° |
| 2026-05-05 18:50 | 16.66530 | 109.13534 | 38873 ft | 510 kts | 54° |
| 2026-05-05 18:50 | 16.70498 | 109.19660 | 38887 ft | 509 kts | 54° |
| 2026-05-05 18:51 | 16.74465 | 109.25783 | 38879 ft | 509 kts | 54° |
| 2026-05-05 18:51 | 16.78429 | 109.31903 | 38880 ft | 509 kts | 54° |
| 2026-05-05 18:52 | 16.82389 | 109.38024 | 38884 ft | 509 kts | 54° |
| 2026-05-05 18:52 | 16.86346 | 109.44152 | 38897 ft | 509 kts | 54° |
| 2026-05-05 18:53 | 16.90307 | 109.50268 | 38882 ft | 508 kts | 54° |
| 2026-05-05 18:53 | 16.94267 | 109.56384 | 38881 ft | 508 kts | 54° |
| 2026-05-05 18:54 | 16.98221 | 109.62502 | 38881 ft | 508 kts | 54° |
| 2026-05-05 18:54 | 17.02174 | 109.68625 | 38883 ft | 508 kts | 54° |
| 2026-05-05 18:55 | 17.06121 | 109.74747 | 38883 ft | 508 kts | 54° |
| 2026-05-05 18:55 | 17.10043 | 109.80835 | 38885 ft | 508 kts | 54° |
| 2026-05-05 18:56 | 17.13988 | 109.86962 | 38881 ft | 508 kts | 54° |
| 2026-05-05 18:56 | 17.17937 | 109.93103 | 38882 ft | 508 kts | 54° |
| 2026-05-05 18:57 | 17.21882 | 109.99242 | 38881 ft | 509 kts | 54° |
| 2026-05-05 18:57 | 17.25826 | 110.05385 | 38880 ft | 509 kts | 54° |
| 2026-05-05 18:58 | 17.29775 | 110.11542 | 38883 ft | 509 kts | 54° |
| 2026-05-05 18:58 | 17.33720 | 110.17697 | 38882 ft | 509 kts | 54° |
| 2026-05-05 18:59 | 17.37664 | 110.23858 | 38882 ft | 510 kts | 54° |
| 2026-05-05 18:59 | 17.41609 | 110.30025 | 38881 ft | 510 kts | 54° |
| 2026-05-05 19:00 | 17.45571 | 110.36175 | 38882 ft | 509 kts | 53° |
| 2026-05-05 19:00 | 17.49568 | 110.42305 | 38881 ft | 509 kts | 53° |
| 2026-05-05 19:01 | 17.53561 | 110.48441 | 38882 ft | 509 kts | 53° |
| 2026-05-05 19:01 | 17.57541 | 110.54578 | 38881 ft | 509 kts | 53° |
| 2026-05-05 19:02 | 17.61516 | 110.60718 | 38882 ft | 509 kts | 53° |
| 2026-05-05 19:02 | 17.65489 | 110.66863 | 38881 ft | 509 kts | 53° |
| 2026-05-05 19:03 | 17.69458 | 110.73006 | 38883 ft | 509 kts | 53° |
| 2026-05-05 19:03 | 17.73424 | 110.79149 | 38880 ft | 508 kts | 54° |
| 2026-05-05 19:04 | 17.77383 | 110.85288 | 38881 ft | 507 kts | 54° |
| 2026-05-05 19:04 | 17.81330 | 110.91413 | 38883 ft | 507 kts | 54° |
| 2026-05-05 19:05 | 17.85277 | 110.97543 | 38884 ft | 506 kts | 54° |
| 2026-05-05 19:05 | 17.89215 | 111.03667 | 38882 ft | 506 kts | 54° |
| 2026-05-05 19:06 | 17.93143 | 111.09780 | 38882 ft | 505 kts | 54° |
| 2026-05-05 19:06 | 17.97068 | 111.15893 | 38881 ft | 505 kts | 54° |
| 2026-05-05 19:07 | 18.00989 | 111.22008 | 38883 ft | 504 kts | 54° |
| 2026-05-05 19:07 | 18.04910 | 111.28126 | 38882 ft | 505 kts | 54° |
| 2026-05-05 19:08 | 18.08803 | 111.34207 | 38883 ft | 505 kts | 54° |
| 2026-05-05 19:08 | 18.12719 | 111.40331 | 38881 ft | 505 kts | 54° |
| 2026-05-05 19:09 | 18.16634 | 111.46457 | 38882 ft | 505 kts | 54° |
| 2026-05-05 19:09 | 18.20548 | 111.52589 | 38883 ft | 505 kts | 54° |
| 2026-05-05 19:10 | 18.24464 | 111.58729 | 38883 ft | 505 kts | 54° |
| 2026-05-05 19:10 | 18.28375 | 111.64867 | 38886 ft | 505 kts | 54° |
| 2026-05-05 19:11 | 18.32288 | 111.71013 | 38885 ft | 505 kts | 54° |
| 2026-05-05 19:11 | 18.36199 | 111.77164 | 38882 ft | 506 kts | 54° |
| 2026-05-05 19:12 | 18.40108 | 111.83316 | 38881 ft | 506 kts | 54° |
| 2026-05-05 19:12 | 18.44020 | 111.89479 | 38884 ft | 506 kts | 54° |
| 2026-05-05 19:13 | 18.47928 | 111.95642 | 38883 ft | 506 kts | 54° |
| 2026-05-05 19:13 | 18.51841 | 112.01819 | 38882 ft | 506 kts | 54° |
| 2026-05-05 19:14 | 18.55749 | 112.07994 | 38881 ft | 507 kts | 54° |
| 2026-05-05 19:14 | 18.59655 | 112.14172 | 38882 ft | 507 kts | 54° |
| 2026-05-05 19:15 | 18.63562 | 112.20357 | 38883 ft | 507 kts | 54° |
| 2026-05-05 19:15 | 18.67251 | 112.26712 | 38882 ft | 509 kts | 59° |
| 2026-05-05 19:16 | 18.70594 | 112.33298 | 38884 ft | 510 kts | 60° |
| 2026-05-05 19:16 | 18.73881 | 112.39926 | 38882 ft | 510 kts | 60° |
| 2026-05-05 19:17 | 18.77145 | 112.46518 | 38886 ft | 511 kts | 60° |
| 2026-05-05 19:17 | 18.80441 | 112.53163 | 38884 ft | 511 kts | 60° |
| 2026-05-05 19:18 | 18.83741 | 112.59814 | 38883 ft | 511 kts | 60° |
| 2026-05-05 19:18 | 18.87039 | 112.66465 | 38884 ft | 512 kts | 60° |
| 2026-05-05 19:19 | 18.90338 | 112.73127 | 38885 ft | 512 kts | 60° |
| 2026-05-05 19:19 | 18.93637 | 112.79796 | 38887 ft | 512 kts | 60° |
| 2026-05-05 19:20 | 18.96933 | 112.86469 | 38888 ft | 512 kts | 60° |
| 2026-05-05 19:20 | 19.00230 | 112.93150 | 38886 ft | 513 kts | 60° |
| 2026-05-05 19:21 | 19.03526 | 112.99835 | 38888 ft | 513 kts | 60° |
| 2026-05-05 19:21 | 19.06818 | 113.06522 | 38884 ft | 513 kts | 60° |
| 2026-05-05 19:22 | 19.09554 | 113.12084 | 38884 ft | 513 kts | 60° |
| 2026-05-05 19:22 | 19.13403 | 113.19917 | 38891 ft | 513 kts | 60° |
| 2026-05-05 19:23 | 19.16137 | 113.25488 | 38890 ft | 514 kts | 60° |
| 2026-05-05 19:23 | 19.19428 | 113.32201 | 38890 ft | 514 kts | 60° |
| 2026-05-05 19:24 | 19.22713 | 113.38909 | 38890 ft | 514 kts | 60° |
| 2026-05-05 19:24 | 19.26001 | 113.45631 | 38888 ft | 514 kts | 60° |
| 2026-05-05 19:25 | 19.29284 | 113.52351 | 38889 ft | 514 kts | 60° |
| 2026-05-05 19:25 | 19.32565 | 113.59075 | 38895 ft | 514 kts | 60° |
| 2026-05-05 19:26 | 19.35826 | 113.65764 | 38892 ft | 514 kts | 60° |
| 2026-05-05 19:26 | 19.39103 | 113.72495 | 38896 ft | 514 kts | 60° |
| 2026-05-05 19:27 | 19.42378 | 113.79229 | 38894 ft | 514 kts | 60° |
| 2026-05-05 19:27 | 19.45649 | 113.85963 | 38895 ft | 514 kts | 60° |
| 2026-05-05 19:28 | 19.48921 | 113.92706 | 38896 ft | 514 kts | 60° |
| 2026-05-05 19:28 | 19.52186 | 113.99443 | 38896 ft | 514 kts | 60° |
| 2026-05-05 19:29 | 19.55454 | 114.06194 | 38901 ft | 514 kts | 60° |
| 2026-05-05 19:29 | 19.58717 | 114.12942 | 38893 ft | 514 kts | 60° |
| 2026-05-05 19:30 | 19.61975 | 114.19689 | 38898 ft | 514 kts | 60° |
| 2026-05-05 19:30 | 19.65233 | 114.26444 | 38903 ft | 514 kts | 60° |
| 2026-05-05 19:31 | 19.68487 | 114.33198 | 38902 ft | 514 kts | 60° |
| 2026-05-05 19:31 | 19.71739 | 114.39957 | 38899 ft | 514 kts | 61° |
| 2026-05-05 19:32 | 19.74983 | 114.46719 | 38899 ft | 514 kts | 61° |
| 2026-05-05 19:32 | 19.78231 | 114.53483 | 38900 ft | 514 kts | 61° |
| 2026-05-05 19:33 | 19.81479 | 114.60259 | 38901 ft | 515 kts | 61° |
| 2026-05-05 19:33 | 19.84721 | 114.67033 | 38903 ft | 515 kts | 61° |
| 2026-05-05 19:34 | 19.87960 | 114.73809 | 38899 ft | 515 kts | 61° |
| 2026-05-05 19:35 | 19.92821 | 114.83994 | 38905 ft | 515 kts | 61° |
| 2026-05-05 19:35 | 19.96056 | 114.90782 | 38903 ft | 515 kts | 61° |
| 2026-05-05 19:36 | 19.99292 | 114.97578 | 38908 ft | 515 kts | 61° |
| 2026-05-05 19:36 | 20.02502 | 115.04332 | 38908 ft | 515 kts | 61° |
| 2026-05-05 19:37 | 20.05731 | 115.11132 | 38905 ft | 515 kts | 60° |
| 2026-05-05 19:37 | 20.08962 | 115.17944 | 38905 ft | 515 kts | 60° |
| 2026-05-05 19:38 | 20.12190 | 115.24757 | 38903 ft | 516 kts | 60° |
| 2026-05-05 19:38 | 20.15412 | 115.31568 | 38910 ft | 516 kts | 60° |
| 2026-05-05 19:39 | 20.18637 | 115.38393 | 38906 ft | 516 kts | 60° |
| 2026-05-05 19:39 | 20.21860 | 115.45222 | 38909 ft | 516 kts | 60° |
| 2026-05-05 19:40 | 20.25085 | 115.52064 | 38907 ft | 517 kts | 60° |
| 2026-05-05 19:40 | 20.28306 | 115.58908 | 38909 ft | 517 kts | 60° |
| 2026-05-05 19:41 | 20.31533 | 115.65766 | 38908 ft | 518 kts | 60° |
| 2026-05-05 19:41 | 20.34758 | 115.72629 | 38912 ft | 518 kts | 60° |
| 2026-05-05 19:42 | 20.37982 | 115.79500 | 38912 ft | 519 kts | 60° |
| 2026-05-05 19:42 | 20.41208 | 115.86386 | 38911 ft | 519 kts | 60° |
| 2026-05-05 19:43 | 20.44430 | 115.93271 | 38913 ft | 519 kts | 60° |
| 2026-05-05 19:43 | 20.47651 | 116.00161 | 38915 ft | 520 kts | 60° |
| 2026-05-05 19:44 | 20.50874 | 116.07068 | 38916 ft | 520 kts | 60° |
| 2026-05-05 19:44 | 20.54098 | 116.13981 | 38917 ft | 521 kts | 60° |
| 2026-05-05 19:45 | 20.57321 | 116.20904 | 38915 ft | 521 kts | 60° |
| 2026-05-05 19:45 | 20.60523 | 116.27790 | 38914 ft | 522 kts | 60° |
| 2026-05-05 19:46 | 20.63748 | 116.34733 | 38914 ft | 522 kts | 60° |
| 2026-05-05 19:46 | 20.66972 | 116.41685 | 38918 ft | 523 kts | 60° |
| 2026-05-05 19:47 | 20.70195 | 116.48642 | 38915 ft | 523 kts | 60° |
| 2026-05-05 19:47 | 20.73423 | 116.55618 | 38922 ft | 524 kts | 60° |
| 2026-05-05 19:48 | 20.76649 | 116.62600 | 38921 ft | 524 kts | 60° |
| 2026-05-05 19:48 | 20.79873 | 116.69588 | 38921 ft | 525 kts | 60° |
| 2026-05-05 19:49 | 20.83101 | 116.76592 | 38921 ft | 525 kts | 60° |
| 2026-05-05 19:49 | 20.86332 | 116.83612 | 38920 ft | 526 kts | 60° |
| 2026-05-05 19:50 | 20.89560 | 116.90636 | 38925 ft | 527 kts | 60° |
| 2026-05-05 19:50 | 20.92786 | 116.97664 | 38928 ft | 527 kts | 60° |
| 2026-05-05 19:51 | 20.96015 | 117.04708 | 38918 ft | 527 kts | 60° |
| 2026-05-05 19:51 | 20.99241 | 117.11754 | 38916 ft | 528 kts | 60° |
| 2026-05-05 19:52 | 21.02467 | 117.18810 | 38932 ft | 528 kts | 60° |
| 2026-05-05 19:52 | 21.05694 | 117.25878 | 38925 ft | 528 kts | 60° |
| 2026-05-05 19:53 | 21.08914 | 117.32940 | 38924 ft | 528 kts | 60° |
| 2026-05-05 19:53 | 21.12114 | 117.39968 | 38923 ft | 529 kts | 60° |
| 2026-05-05 19:54 | 21.15334 | 117.47054 | 38931 ft | 529 kts | 60° |
| 2026-05-05 19:54 | 21.17763 | 117.54546 | 38924 ft | 535 kts | 71° |
| 2026-05-05 19:55 | 21.19661 | 117.62265 | 38926 ft | 536 kts | 73° |
| 2026-05-05 19:55 | 21.21473 | 117.70027 | 38927 ft | 537 kts | 73° |
| 2026-05-05 19:56 | 21.23289 | 117.77788 | 38924 ft | 537 kts | 73° |
| 2026-05-05 19:56 | 21.25121 | 117.85553 | 38925 ft | 537 kts | 72° |
| 2026-05-05 19:57 | 21.26957 | 117.93322 | 38929 ft | 538 kts | 72° |
| 2026-05-05 19:57 | 21.28791 | 118.01097 | 38923 ft | 538 kts | 73° |
| 2026-05-05 19:58 | 21.30621 | 118.08875 | 38923 ft | 539 kts | 73° |
| 2026-05-05 19:58 | 21.32451 | 118.16672 | 38924 ft | 539 kts | 73° |
| 2026-05-05 19:59 | 21.34277 | 118.24469 | 38926 ft | 539 kts | 73° |
| 2026-05-05 19:59 | 21.36098 | 118.32262 | 38924 ft | 540 kts | 73° |
| 2026-05-05 20:00 | 21.37922 | 118.40085 | 38928 ft | 540 kts | 73° |
| 2026-05-05 20:00 | 21.39740 | 118.47905 | 38926 ft | 540 kts | 73° |
| 2026-05-05 20:01 | 21.41556 | 118.55733 | 38926 ft | 541 kts | 73° |
| 2026-05-05 20:01 | 21.43368 | 118.63561 | 38928 ft | 541 kts | 73° |
| 2026-05-05 20:02 | 21.45178 | 118.71399 | 38929 ft | 541 kts | 73° |
| 2026-05-05 20:02 | 21.46984 | 118.79236 | 38926 ft | 541 kts | 73° |
| 2026-05-05 20:03 | 21.48788 | 118.87087 | 38926 ft | 542 kts | 73° |
| 2026-05-05 20:03 | 21.50590 | 118.94941 | 38928 ft | 542 kts | 73° |
| 2026-05-05 20:04 | 21.52388 | 119.02799 | 38927 ft | 542 kts | 73° |
| 2026-05-05 20:04 | 21.54173 | 119.10615 | 38924 ft | 543 kts | 73° |
| 2026-05-05 20:05 | 21.55968 | 119.18496 | 38924 ft | 543 kts | 73° |
| 2026-05-05 20:05 | 21.57761 | 119.26386 | 38926 ft | 544 kts | 73° |
| 2026-05-05 20:06 | 21.59551 | 119.34279 | 38927 ft | 544 kts | 73° |
| 2026-05-05 20:06 | 21.61337 | 119.42176 | 38928 ft | 544 kts | 73° |
| 2026-05-05 20:07 | 21.63121 | 119.50078 | 38926 ft | 544 kts | 73° |
| 2026-05-05 20:07 | 21.64900 | 119.57979 | 38927 ft | 544 kts | 74° |
| 2026-05-05 20:08 | 21.66678 | 119.65896 | 38921 ft | 545 kts | 74° |
| 2026-05-05 20:08 | 21.68452 | 119.73810 | 38924 ft | 545 kts | 74° |
| 2026-05-05 20:09 | 21.70223 | 119.81734 | 38927 ft | 545 kts | 74° |
| 2026-05-05 20:09 | 21.71693 | 119.88325 | 38926 ft | 545 kts | 74° |
| 2026-05-05 20:10 | 21.73746 | 119.97547 | 38924 ft | 546 kts | 74° |
| 2026-05-05 20:10 | 21.75509 | 120.05491 | 38928 ft | 546 kts | 74° |
| 2026-05-05 20:11 | 21.77271 | 120.13448 | 38924 ft | 547 kts | 74° |
| 2026-05-05 20:11 | 21.79030 | 120.21412 | 38928 ft | 547 kts | 74° |
| 2026-05-05 20:12 | 21.80502 | 120.28089 | 38918 ft | 548 kts | 75° |
| 2026-05-05 20:12 | 21.82245 | 120.36017 | 38924 ft | 548 kts | 75° |
| 2026-05-05 20:13 | 21.83997 | 120.44001 | 38923 ft | 548 kts | 75° |
| 2026-05-05 20:13 | 21.85746 | 120.51994 | 38923 ft | 549 kts | 75° |
| 2026-05-05 20:14 | 21.87492 | 120.59990 | 38925 ft | 549 kts | 75° |
| 2026-05-05 20:14 | 21.89236 | 120.67998 | 38928 ft | 549 kts | 75° |
| 2026-05-05 20:15 | 21.90974 | 120.76001 | 38929 ft | 550 kts | 75° |
| 2026-05-05 20:15 | 21.92713 | 120.84025 | 38933 ft | 550 kts | 75° |
| 2026-05-05 20:16 | 21.94309 | 120.92097 | 38926 ft | 551 kts | 78° |
| 2026-05-05 20:16 | 21.95708 | 121.00216 | 38927 ft | 552 kts | 78° |
| 2026-05-05 20:17 | 21.97113 | 121.08337 | 38919 ft | 552 kts | 78° |
| 2026-05-05 20:17 | 21.98857 | 121.16372 | 38919 ft | 549 kts | 67° |
| 2026-05-05 20:17 | 22.00440 | 121.20093 | 38921 ft | 543 kts | 56° |
| 2026-05-05 20:18 | 22.02530 | 121.23452 | 38921 ft | 539 kts | 49° |
| 2026-05-05 20:18 | 22.07145 | 121.29813 | 38923 ft | 538 kts | 46° |
| 2026-05-05 20:19 | 22.11888 | 121.36058 | 38926 ft | 539 kts | 46° |
| 2026-05-05 20:19 | 22.16620 | 121.42324 | 38926 ft | 539 kts | 46° |
| 2026-05-05 20:20 | 22.21298 | 121.48597 | 38929 ft | 540 kts | 47° |
| 2026-05-05 20:20 | 22.26031 | 121.54972 | 38929 ft | 541 kts | 47° |
| 2026-05-05 20:21 | 22.30697 | 121.61267 | 38930 ft | 541 kts | 47° |
| 2026-05-05 20:21 | 22.35401 | 121.67619 | 38928 ft | 541 kts | 47° |
| 2026-05-05 20:22 | 22.40102 | 121.73979 | 38928 ft | 542 kts | 47° |
| 2026-05-05 20:22 | 22.44815 | 121.80344 | 38932 ft | 542 kts | 47° |
| 2026-05-05 20:23 | 22.49535 | 121.86724 | 38930 ft | 543 kts | 47° |
| 2026-05-05 20:23 | 22.54250 | 121.93110 | 38929 ft | 544 kts | 47° |
| 2026-05-05 20:24 | 22.58970 | 121.99512 | 38927 ft | 544 kts | 47° |
| 2026-05-05 20:24 | 22.63691 | 122.05924 | 38937 ft | 545 kts | 47° |
| 2026-05-05 20:25 | 22.68414 | 122.12347 | 38928 ft | 545 kts | 47° |
| 2026-05-05 20:25 | 22.73137 | 122.18777 | 38928 ft | 546 kts | 47° |
| 2026-05-05 20:26 | 22.77863 | 122.25220 | 38928 ft | 546 kts | 47° |
| 2026-05-05 20:26 | 22.82589 | 122.31670 | 38936 ft | 547 kts | 47° |
| 2026-05-05 20:27 | 22.87317 | 122.38131 | 38934 ft | 547 kts | 47° |
| 2026-05-05 20:27 | 22.92048 | 122.44605 | 38933 ft | 548 kts | 47° |
| 2026-05-05 20:28 | 22.96784 | 122.51093 | 38932 ft | 548 kts | 47° |
| 2026-05-05 20:28 | 23.01488 | 122.57544 | 38934 ft | 549 kts | 47° |
| 2026-05-05 20:29 | 23.06222 | 122.64047 | 38934 ft | 549 kts | 48° |
| 2026-05-05 20:29 | 23.10963 | 122.70566 | 38933 ft | 550 kts | 48° |
| 2026-05-05 20:30 | 23.15702 | 122.77091 | 38934 ft | 550 kts | 48° |
| 2026-05-05 20:30 | 23.20440 | 122.83624 | 38934 ft | 551 kts | 48° |
| 2026-05-05 20:31 | 23.25183 | 122.90171 | 38934 ft | 551 kts | 48° |
| 2026-05-05 20:31 | 23.29927 | 122.96728 | 38936 ft | 551 kts | 48° |
| 2026-05-05 20:32 | 23.34615 | 123.03331 | 38934 ft | 553 kts | 51° |
| 2026-05-05 20:32 | 23.38974 | 123.10248 | 38937 ft | 554 kts | 53° |
| 2026-05-05 20:33 | 23.43252 | 123.17230 | 38937 ft | 555 kts | 53° |
| 2026-05-05 20:33 | 23.47578 | 123.24188 | 38937 ft | 555 kts | 53° |
| 2026-05-05 20:34 | 23.51945 | 123.31121 | 38936 ft | 555 kts | 52° |
| 2026-05-05 20:34 | 23.56308 | 123.38058 | 38933 ft | 553 kts | 53° |
| 2026-05-05 20:35 | 23.60667 | 123.45013 | 38935 ft | 556 kts | 53° |
| 2026-05-05 20:35 | 23.65030 | 123.51958 | 38941 ft | 555 kts | 53° |
| 2026-05-05 20:36 | 23.69361 | 123.58850 | 38940 ft | 553 kts | 52° |
| 2026-05-05 20:36 | 23.73716 | 123.65787 | 38939 ft | 554 kts | 53° |
| 2026-05-05 20:37 | 23.78049 | 123.72746 | 38935 ft | 554 kts | 53° |
| 2026-05-05 20:37 | 23.82392 | 123.79705 | 38939 ft | 557 kts | 53° |
| 2026-05-05 20:38 | 23.86714 | 123.86683 | 38935 ft | 552 kts | 54° |
| 2026-05-05 20:38 | 23.91045 | 123.93639 | 38938 ft | 554 kts | 54° |
| 2026-05-05 20:39 | 23.95643 | 124.00369 | 38938 ft | 551 kts | 42° |
| 2026-05-05 20:39 | 24.01142 | 124.06114 | 38936 ft | 548 kts | 38° |
| 2026-05-05 20:40 | 24.06822 | 124.11670 | 38933 ft | 548 kts | 36° |
| 2026-05-05 20:40 | 24.12534 | 124.17186 | 38933 ft | 546 kts | 38° |
| 2026-05-05 20:41 | 24.18192 | 124.22747 | 38938 ft | 548 kts | 38° |
| 2026-05-05 20:41 | 24.23852 | 124.28360 | 38936 ft | 547 kts | 38° |
| 2026-05-05 20:42 | 24.29499 | 124.33944 | 38939 ft | 546 kts | 38° |
| 2026-05-05 20:42 | 24.35155 | 124.39527 | 38932 ft | 547 kts | 38° |
| 2026-05-05 20:43 | 24.40806 | 124.45135 | 38934 ft | 546 kts | 38° |
| 2026-05-05 20:43 | 24.46443 | 124.50732 | 38935 ft | 546 kts | 38° |
| 2026-05-05 20:44 | 24.52084 | 124.56322 | 38918 ft | 546 kts | 38° |
| 2026-05-05 20:44 | 24.57687 | 124.61883 | 38912 ft | 546 kts | 38° |
| 2026-05-05 20:45 | 24.66130 | 124.70285 | 38915 ft | 546 kts | 38° |
| 2026-05-05 20:45 | 24.71756 | 124.75893 | 38907 ft | 546 kts | 38° |
| 2026-05-05 20:46 | 24.77373 | 124.81499 | 38918 ft | 545 kts | 38° |
| 2026-05-05 20:46 | 24.82987 | 124.87112 | 38926 ft | 546 kts | 38° |
| 2026-05-05 20:47 | 24.88589 | 124.92728 | 38921 ft | 543 kts | 38° |
| 2026-05-05 20:47 | 24.94176 | 124.98351 | 38921 ft | 542 kts | 39° |
| 2026-05-05 20:48 | 24.99764 | 125.03970 | 38921 ft | 544 kts | 39° |
| 2026-05-05 20:48 | 25.05368 | 125.09592 | 38926 ft | 544 kts | 39° |
| 2026-05-05 20:49 | 25.10957 | 125.15224 | 38926 ft | 544 kts | 39° |
| 2026-05-05 20:49 | 25.16544 | 125.20856 | 38932 ft | 544 kts | 38° |
| 2026-05-05 20:50 | 25.21192 | 125.25540 | 38941 ft | 544 kts | 38° |
| 2026-05-05 20:50 | 25.27719 | 125.32134 | 38943 ft | 544 kts | 38° |
| 2026-05-05 20:51 | 25.33305 | 125.37784 | 38943 ft | 544 kts | 38° |
| 2026-05-05 20:51 | 25.38894 | 125.43459 | 38945 ft | 545 kts | 38° |
| 2026-05-05 20:52 | 25.44475 | 125.49129 | 38948 ft | 544 kts | 39° |
| 2026-05-05 20:52 | 25.50059 | 125.54817 | 38948 ft | 545 kts | 39° |
| 2026-05-05 20:53 | 25.55599 | 125.60438 | 38948 ft | 543 kts | 39° |
| 2026-05-05 20:53 | 25.61168 | 125.66116 | 38953 ft | 544 kts | 39° |
| 2026-05-05 20:54 | 25.66743 | 125.71804 | 38949 ft | 544 kts | 39° |
| 2026-05-05 20:54 | 25.72319 | 125.77494 | 38956 ft | 545 kts | 39° |
| 2026-05-05 20:55 | 25.77898 | 125.83200 | 38948 ft | 546 kts | 39° |
| 2026-05-05 20:55 | 25.83479 | 125.88912 | 38963 ft | 546 kts | 39° |
| 2026-05-05 20:56 | 25.89064 | 125.94635 | 38963 ft | 546 kts | 40° |
| 2026-05-05 20:56 | 25.94640 | 126.00369 | 38962 ft | 547 kts | 40° |
| 2026-05-05 20:57 | 26.00227 | 126.06117 | 38964 ft | 547 kts | 40° |
| 2026-05-05 20:57 | 26.05816 | 126.11887 | 38963 ft | 551 kts | 40° |
| 2026-05-05 20:58 | 26.10445 | 126.16706 | 38968 ft | 548 kts | 40° |
| 2026-05-05 20:58 | 26.16041 | 126.22485 | 38970 ft | 550 kts | 40° |
| 2026-05-05 20:59 | 26.21688 | 126.28262 | 38972 ft | 554 kts | 40° |
| 2026-05-05 20:59 | 26.28259 | 126.35019 | 38974 ft | 550 kts | 40° |
| 2026-05-05 21:00 | 26.32947 | 126.39891 | 38970 ft | 550 kts | 41° |
| 2026-05-05 21:00 | 26.39478 | 126.46658 | 38978 ft | 552 kts | 40° |
| 2026-05-05 21:01 | 26.44205 | 126.51545 | 38979 ft | 554 kts | 40° |
| 2026-05-05 21:01 | 26.49848 | 126.57400 | 38979 ft | 554 kts | 40° |
| 2026-05-05 21:02 | 26.55492 | 126.63238 | 38985 ft | 552 kts | 40° |
| 2026-05-05 21:02 | 26.61120 | 126.69088 | 38987 ft | 553 kts | 41° |
| 2026-05-05 21:03 | 26.66743 | 126.74969 | 38986 ft | 554 kts | 41° |
| 2026-05-05 21:03 | 26.72338 | 126.80818 | 38987 ft | 554 kts | 41° |
| 2026-05-05 21:04 | 26.77974 | 126.86716 | 38990 ft | 555 kts | 41° |
| 2026-05-05 21:04 | 26.83621 | 126.92635 | 38995 ft | 557 kts | 41° |
| 2026-05-05 21:05 | 26.89279 | 126.98563 | 38996 ft | 556 kts | 41° |
| 2026-05-05 21:05 | 26.94925 | 127.04502 | 38998 ft | 558 kts | 40° |
| 2026-05-05 21:06 | 27.00606 | 127.10463 | 38999 ft | 560 kts | 40° |
| 2026-05-05 21:06 | 27.06292 | 127.16439 | 39001 ft | 560 kts | 41° |
| 2026-05-05 21:07 | 27.11982 | 127.22439 | 39006 ft | 561 kts | 41° |
| 2026-05-05 21:07 | 27.17675 | 127.28447 | 39010 ft | 562 kts | 41° |
| 2026-05-05 21:08 | 27.23374 | 127.34472 | 39011 ft | 563 kts | 41° |
| 2026-05-05 21:08 | 27.29081 | 127.40516 | 39017 ft | 564 kts | 41° |
| 2026-05-05 21:09 | 27.34795 | 127.46577 | 39019 ft | 565 kts | 41° |
| 2026-05-05 21:09 | 27.40514 | 127.52660 | 39018 ft | 566 kts | 41° |
| 2026-05-05 21:10 | 27.46244 | 127.58751 | 39025 ft | 567 kts | 41° |
| 2026-05-05 21:10 | 27.51906 | 127.64857 | 39030 ft | 568 kts | 43° |
| 2026-05-05 21:11 | 27.57420 | 127.71233 | 39034 ft | 568 kts | 44° |
| 2026-05-05 21:11 | 27.62905 | 127.77668 | 39031 ft | 569 kts | 44° |
| 2026-05-05 21:12 | 27.68417 | 127.84081 | 39025 ft | 570 kts | 44° |
| 2026-05-05 21:12 | 27.73954 | 127.90489 | 39042 ft | 571 kts | 44° |
| 2026-05-05 21:13 | 27.79503 | 127.96912 | 39038 ft | 571 kts | 44° |
| 2026-05-05 21:13 | 27.85051 | 128.03347 | 39042 ft | 572 kts | 44° |
| 2026-05-05 21:14 | 27.90602 | 128.09795 | 39041 ft | 573 kts | 44° |
| 2026-05-05 21:14 | 27.96155 | 128.16257 | 39040 ft | 573 kts | 44° |
| 2026-05-05 21:15 | 28.01718 | 128.22736 | 39045 ft | 574 kts | 44° |
| 2026-05-05 21:15 | 28.07285 | 128.29238 | 39046 ft | 576 kts | 44° |
| 2026-05-05 21:16 | 28.12858 | 128.35758 | 39049 ft | 576 kts | 43° |
| 2026-05-05 21:16 | 28.18438 | 128.42294 | 39050 ft | 578 kts | 44° |
| 2026-05-05 21:17 | 28.24020 | 128.48848 | 39053 ft | 578 kts | 44° |
| 2026-05-05 21:17 | 28.29615 | 128.55419 | 39054 ft | 579 kts | 43° |
| 2026-05-05 21:18 | 28.35219 | 128.62011 | 39057 ft | 581 kts | 43° |
| 2026-05-05 21:18 | 28.40794 | 128.68586 | 39063 ft | 582 kts | 43° |
| 2026-05-05 21:19 | 28.46419 | 128.75217 | 39064 ft | 583 kts | 43° |
| 2026-05-05 21:19 | 28.52044 | 128.81864 | 39064 ft | 583 kts | 43° |
| 2026-05-05 21:20 | 28.57654 | 128.88516 | 39063 ft | 582 kts | 43° |
| 2026-05-05 21:20 | 28.63258 | 128.95166 | 39068 ft | 583 kts | 44° |
| 2026-05-05 21:21 | 28.68868 | 129.01839 | 39070 ft | 583 kts | 44° |
| 2026-05-05 21:21 | 28.74484 | 129.08523 | 39065 ft | 583 kts | 43° |
| 2026-05-05 21:22 | 28.80092 | 129.15205 | 39071 ft | 583 kts | 44° |
| 2026-05-05 21:22 | 28.85695 | 129.21901 | 39071 ft | 585 kts | 43° |
| 2026-05-05 21:23 | 28.91307 | 129.28612 | 39073 ft | 584 kts | 43° |
| 2026-05-05 21:23 | 28.96911 | 129.35326 | 39073 ft | 584 kts | 43° |
| 2026-05-05 21:24 | 29.02520 | 129.42042 | 39072 ft | 584 kts | 43° |
| 2026-05-05 21:24 | 29.08172 | 129.48718 | 39075 ft | 585 kts | 43° |
| 2026-05-05 21:25 | 29.13830 | 129.55411 | 39077 ft | 585 kts | 43° |
| 2026-05-05 21:25 | 29.19475 | 129.62095 | 39079 ft | 585 kts | 43° |
| 2026-05-05 21:26 | 29.25123 | 129.68810 | 39070 ft | 585 kts | 43° |
| 2026-05-05 21:26 | 29.30761 | 129.75523 | 39073 ft | 584 kts | 43° |
| 2026-05-05 21:27 | 29.36386 | 129.82239 | 39086 ft | 584 kts | 43° |
| 2026-05-05 21:27 | 29.42015 | 129.88960 | 39075 ft | 584 kts | 43° |
| 2026-05-05 21:28 | 29.47644 | 129.95687 | 39079 ft | 584 kts | 43° |
| 2026-05-05 21:28 | 29.53254 | 130.02425 | 39082 ft | 584 kts | 43° |
| 2026-05-05 21:29 | 29.58823 | 130.09133 | 39078 ft | 584 kts | 44° |
| 2026-05-05 21:29 | 29.64276 | 130.16049 | 39080 ft | 585 kts | 46° |
| 2026-05-05 21:30 | 29.69662 | 130.23067 | 39079 ft | 585 kts | 46° |
| 2026-05-05 21:30 | 29.75059 | 130.30068 | 39086 ft | 585 kts | 45° |
| 2026-05-05 21:31 | 29.80474 | 130.37056 | 39087 ft | 585 kts | 45° |
| 2026-05-05 21:31 | 29.85897 | 130.44057 | 39083 ft | 585 kts | 45° |
| 2026-05-05 21:32 | 29.91320 | 130.51043 | 39085 ft | 585 kts | 45° |
| 2026-05-05 21:32 | 29.96734 | 130.58041 | 39084 ft | 585 kts | 45° |
| 2026-05-05 21:33 | 30.02710 | 130.64275 | 39088 ft | 573 kts | 26° |
| 2026-05-05 21:33 | 30.09587 | 130.68790 | 39089 ft | 567 kts | 21° |
| 2026-05-05 21:34 | 30.16595 | 130.72970 | 39093 ft | 566 kts | 20° |
| 2026-05-05 21:34 | 30.23616 | 130.77109 | 39096 ft | 566 kts | 20° |
| 2026-05-05 21:35 | 30.30620 | 130.81275 | 39098 ft | 566 kts | 20° |
| 2026-05-05 21:35 | 30.37618 | 130.85484 | 39108 ft | 567 kts | 20° |
| 2026-05-05 21:36 | 30.44604 | 130.89706 | 39119 ft | 566 kts | 20° |
| 2026-05-05 21:36 | 30.51585 | 130.93921 | 39130 ft | 566 kts | 20° |
| 2026-05-05 21:37 | 30.58558 | 130.98176 | 39133 ft | 568 kts | 23° |
| 2026-05-05 21:37 | 30.65048 | 131.03446 | 39131 ft | 576 kts | 31° |
| 2026-05-05 21:38 | 30.71404 | 131.09155 | 39123 ft | 577 kts | 32° |
| 2026-05-05 21:38 | 30.77751 | 131.14965 | 39120 ft | 577 kts | 33° |
| 2026-05-05 21:39 | 30.84023 | 131.20700 | 39118 ft | 577 kts | 32° |
| 2026-05-05 21:39 | 30.90344 | 131.26461 | 39119 ft | 578 kts | 32° |
| 2026-05-05 21:40 | 30.96662 | 131.32232 | 39117 ft | 578 kts | 32° |
| 2026-05-05 21:40 | 31.02985 | 131.38011 | 39122 ft | 577 kts | 32° |
| 2026-05-05 21:41 | 31.09310 | 131.43789 | 39121 ft | 577 kts | 32° |
| 2026-05-05 21:41 | 31.15627 | 131.49581 | 39125 ft | 578 kts | 32° |
| 2026-05-05 21:42 | 31.21952 | 131.55385 | 39131 ft | 578 kts | 32° |
| 2026-05-05 21:42 | 31.28269 | 131.61202 | 39131 ft | 578 kts | 32° |
| 2026-05-05 21:43 | 31.34575 | 131.67009 | 39136 ft | 576 kts | 32° |
| 2026-05-05 21:43 | 31.40870 | 131.72806 | 39139 ft | 576 kts | 32° |
| 2026-05-05 21:44 | 31.47168 | 131.78621 | 39134 ft | 576 kts | 32° |
| 2026-05-05 21:44 | 31.53456 | 131.84439 | 39145 ft | 575 kts | 32° |
| 2026-05-05 21:45 | 31.59730 | 131.90261 | 39146 ft | 575 kts | 32° |
| 2026-05-05 21:45 | 31.65960 | 131.96046 | 39137 ft | 574 kts | 32° |
| 2026-05-05 21:46 | 31.72206 | 132.01868 | 39142 ft | 574 kts | 32° |
| 2026-05-05 21:46 | 31.78474 | 132.07713 | 39142 ft | 575 kts | 32° |
| 2026-05-05 21:47 | 31.83716 | 132.12607 | 39148 ft | 573 kts | 32° |
| 2026-05-05 21:47 | 31.89952 | 132.18444 | 39154 ft | 573 kts | 32° |
| 2026-05-05 21:48 | 31.97212 | 132.25243 | 39151 ft | 573 kts | 32° |
| 2026-05-05 21:48 | 32.02401 | 132.30111 | 39150 ft | 574 kts | 32° |
| 2026-05-05 21:49 | 32.08632 | 132.35967 | 39145 ft | 575 kts | 33° |
| 2026-05-05 21:49 | 32.11518 | 132.39277 | 39148 ft | 583 kts | 45° |
| 2026-05-05 21:49 | 32.13902 | 132.43151 | 39153 ft | 587 kts | 58° |
| 2026-05-05 21:50 | 32.17791 | 132.51639 | 39149 ft | 588 kts | 62° |
| 2026-05-05 21:50 | 32.21405 | 132.60321 | 39153 ft | 589 kts | 63° |
| 2026-05-05 21:51 | 32.25000 | 132.69014 | 39156 ft | 589 kts | 62° |
| 2026-05-05 21:51 | 32.28627 | 132.77675 | 39154 ft | 588 kts | 62° |
| 2026-05-05 21:52 | 32.34082 | 132.90647 | 39155 ft | 587 kts | 62° |
| 2026-05-05 21:53 | 32.37708 | 132.99296 | 39156 ft | 586 kts | 62° |
| 2026-05-05 21:53 | 32.41325 | 133.07941 | 39156 ft | 587 kts | 62° |
| 2026-05-05 21:54 | 32.44753 | 133.16165 | 39156 ft | 586 kts | 62° |
| 2026-05-05 21:54 | 32.48330 | 133.24771 | 39157 ft | 586 kts | 62° |
| 2026-05-05 21:55 | 32.51953 | 133.33494 | 39158 ft | 586 kts | 62° |
| 2026-05-05 21:55 | 32.55518 | 133.42107 | 39158 ft | 586 kts | 62° |
| 2026-05-05 21:56 | 32.59109 | 133.50795 | 39161 ft | 587 kts | 62° |
| 2026-05-05 21:56 | 32.62691 | 133.59491 | 39159 ft | 587 kts | 62° |
| 2026-05-05 21:57 | 32.66267 | 133.68195 | 39162 ft | 587 kts | 62° |
| 2026-05-05 21:57 | 32.69838 | 133.76906 | 39162 ft | 587 kts | 62° |
| 2026-05-05 21:58 | 32.73399 | 133.85622 | 39171 ft | 586 kts | 62° |
| 2026-05-05 21:58 | 32.76948 | 133.94326 | 39170 ft | 586 kts | 62° |
| 2026-05-05 21:59 | 32.80503 | 134.03053 | 39176 ft | 586 kts | 62° |
| 2026-05-05 21:59 | 32.83424 | 134.12094 | 39175 ft | 587 kts | 72° |
| 2026-05-05 22:00 | 32.85810 | 134.21381 | 39178 ft | 587 kts | 73° |
| 2026-05-05 22:00 | 32.88099 | 134.30703 | 39181 ft | 587 kts | 74° |
| 2026-05-05 22:01 | 32.90387 | 134.40026 | 39183 ft | 587 kts | 73° |
| 2026-05-05 22:01 | 32.92687 | 134.49344 | 39185 ft | 587 kts | 73° |
| 2026-05-05 22:02 | 32.94984 | 134.58662 | 39190 ft | 587 kts | 73° |
| 2026-05-05 22:02 | 32.97272 | 134.67981 | 39188 ft | 586 kts | 73° |
| 2026-05-05 22:03 | 32.99557 | 134.77310 | 39194 ft | 587 kts | 73° |
| 2026-05-05 22:03 | 33.01830 | 134.86647 | 39195 ft | 587 kts | 74° |
| 2026-05-05 22:04 | 33.04083 | 134.95917 | 39018 ft | 587 kts | 73° |
| 2026-05-05 22:04 | 33.05215 | 135.00593 | 38785 ft | 587 kts | 73° |
| 2026-05-05 22:04 | 33.06347 | 135.05270 | 38507 ft | 588 kts | 74° |
| 2026-05-05 22:04 | 33.07481 | 135.09954 | 38235 ft | 588 kts | 74° |
| 2026-05-05 22:05 | 33.08792 | 135.14571 | 37960 ft | 588 kts | 65° |
| 2026-05-05 22:05 | 33.10678 | 135.18867 | 37698 ft | 583 kts | 54° |
| 2026-05-05 22:05 | 33.13135 | 135.22642 | 37160 ft | 572 kts | 41° |
| 2026-05-05 22:05 | 33.16067 | 135.25807 | 36519 ft | 565 kts | 34° |
| 2026-05-05 22:06 | 33.19136 | 135.28714 | 35861 ft | 563 kts | 32° |
| 2026-05-05 22:06 | 33.22261 | 135.31522 | 35183 ft | 563 kts | 31° |
| 2026-05-05 22:06 | 33.25420 | 135.34296 | 34441 ft | 565 kts | 31° |
| 2026-05-05 22:06 | 33.28593 | 135.37081 | 33609 ft | 568 kts | 32° |
| 2026-05-05 22:07 | 33.31767 | 135.39903 | 32778 ft | 570 kts | 32° |
| 2026-05-05 22:07 | 33.34946 | 135.42763 | 31947 ft | 573 kts | 32° |
| 2026-05-05 22:07 | 33.38125 | 135.45651 | 31064 ft | 576 kts | 32° |
| 2026-05-05 22:07 | 33.41310 | 135.48559 | 30384 ft | 574 kts | 32° |
| 2026-05-05 22:08 | 33.44483 | 135.51450 | 29694 ft | 572 kts | 32° |
| 2026-05-05 22:08 | 33.47640 | 135.54326 | 29034 ft | 568 kts | 32° |
| 2026-05-05 22:08 | 33.50771 | 135.57174 | 28389 ft | 564 kts | 32° |
| 2026-05-05 22:08 | 33.53886 | 135.60013 | 27786 ft | 560 kts | 32° |
| 2026-05-05 22:09 | 33.56976 | 135.62833 | 27162 ft | 556 kts | 32° |
| 2026-05-05 22:09 | 33.60045 | 135.65632 | 26541 ft | 553 kts | 32° |
| 2026-05-05 22:09 | 33.63097 | 135.68418 | 25926 ft | 549 kts | 32° |
| 2026-05-05 22:09 | 33.66125 | 135.71185 | 25315 ft | 545 kts | 32° |
| 2026-05-05 22:10 | 33.69128 | 135.73931 | 24696 ft | 541 kts | 32° |
| 2026-05-05 22:10 | 33.72119 | 135.76639 | 24098 ft | 536 kts | 32° |
| 2026-05-05 22:10 | 33.75057 | 135.79282 | 23441 ft | 532 kts | 32° |
| 2026-05-05 22:10 | 33.78037 | 135.81963 | 22794 ft | 525 kts | 32° |
| 2026-05-05 22:11 | 33.80935 | 135.84577 | 22195 ft | 517 kts | 32° |
| 2026-05-05 22:11 | 33.83788 | 135.87150 | 21593 ft | 510 kts | 33° |
| 2026-05-05 22:11 | 33.86574 | 135.89669 | 20984 ft | 503 kts | 33° |
| 2026-05-05 22:11 | 33.89342 | 135.92179 | 20390 ft | 491 kts | 33° |
| 2026-05-05 22:12 | 33.91982 | 135.94579 | 19814 ft | 461 kts | 34° |
| 2026-05-05 22:12 | 33.94526 | 135.96896 | 19255 ft | 456 kts | 34° |
| 2026-05-05 22:12 | 33.97055 | 135.99190 | 18686 ft | 452 kts | 34° |
| 2026-05-05 22:12 | 33.99558 | 136.01466 | 18079 ft | 449 kts | 34° |
| 2026-05-05 22:13 | 34.02039 | 136.03721 | 17491 ft | 444 kts | 35° |
| 2026-05-05 22:13 | 34.04492 | 136.05952 | 16929 ft | 439 kts | 35° |
| 2026-05-05 22:13 | 34.06906 | 136.08151 | 16371 ft | 433 kts | 36° |
| 2026-05-05 22:13 | 34.09293 | 136.10328 | 15800 ft | 427 kts | 36° |
| 2026-05-05 22:14 | 34.11641 | 136.12473 | 15257 ft | 419 kts | 36° |
| 2026-05-05 22:14 | 34.13940 | 136.14576 | 14731 ft | 411 kts | 36° |
| 2026-05-05 22:14 | 34.16204 | 136.16645 | 14178 ft | 405 kts | 36° |
| 2026-05-05 22:14 | 34.18438 | 136.18687 | 13518 ft | 400 kts | 36° |
| 2026-05-05 22:15 | 34.20644 | 136.20708 | 12851 ft | 396 kts | 37° |
| 2026-05-05 22:15 | 34.22828 | 136.22701 | 12293 ft | 390 kts | 37° |
| 2026-05-05 22:15 | 34.24978 | 136.24653 | 11787 ft | 383 kts | 37° |
| 2026-05-05 22:15 | 34.27060 | 136.26546 | 11600 ft | 367 kts | 37° |
| 2026-05-05 22:16 | 34.29056 | 136.28363 | 11471 ft | 351 kts | 37° |
| 2026-05-05 22:16 | 34.30970 | 136.30107 | 11342 ft | 337 kts | 37° |
| 2026-05-05 22:16 | 34.32804 | 136.31781 | 11217 ft | 324 kts | 37° |
| 2026-05-05 22:16 | 34.34571 | 136.33393 | 11090 ft | 313 kts | 37° |
| 2026-05-05 22:17 | 34.36275 | 136.34951 | 10935 ft | 301 kts | 37° |
| 2026-05-05 22:17 | 34.37933 | 136.36468 | 10647 ft | 297 kts | 37° |
| 2026-05-05 22:17 | 34.39553 | 136.37949 | 10344 ft | 294 kts | 37° |
| 2026-05-05 22:17 | 34.41140 | 136.39471 | 10074 ft | 289 kts | 43° |
| 2026-05-05 22:18 | 34.42357 | 136.41377 | 9806 ft | 290 kts | 64° |
| 2026-05-05 22:18 | 34.43231 | 136.43622 | 9652 ft | 298 kts | 68° |
| 2026-05-05 22:18 | 34.44055 | 136.45916 | 9314 ft | 296 kts | 68° |
| 2026-05-05 22:18 | 34.44879 | 136.48201 | 8950 ft | 295 kts | 69° |
| 2026-05-05 22:19 | 34.45707 | 136.50495 | 8744 ft | 298 kts | 68° |
| 2026-05-05 22:19 | 34.46539 | 136.52780 | 8407 ft | 295 kts | 69° |
| 2026-05-05 22:19 | 34.47367 | 136.55042 | 8079 ft | 291 kts | 69° |
| 2026-05-05 22:19 | 34.48184 | 136.57279 | 7795 ft | 290 kts | 69° |
| 2026-05-05 22:20 | 34.48994 | 136.59505 | 7510 ft | 288 kts | 69° |
| 2026-05-05 22:20 | 34.49799 | 136.61716 | 7206 ft | 286 kts | 69° |
| 2026-05-05 22:20 | 34.50603 | 136.63913 | 6934 ft | 285 kts | 69° |
| 2026-05-05 22:20 | 34.51403 | 136.66101 | 6639 ft | 282 kts | 69° |
| 2026-05-05 22:21 | 34.52190 | 136.68269 | 6340 ft | 280 kts | 70° |
| 2026-05-05 22:21 | 34.52972 | 136.70419 | 6047 ft | 278 kts | 70° |
| 2026-05-05 22:21 | 34.53749 | 136.72554 | 5741 ft | 276 kts | 70° |
| 2026-05-05 22:21 | 34.54260 | 136.73962 | 5568 ft | 275 kts | 70° |
| 2026-05-05 22:22 | 34.54367 | 136.74258 | 5529 ft | 274 kts | 70° |
| 2026-05-05 22:22 | 34.55117 | 136.76317 | 5257 ft | 272 kts | 70° |
| 2026-05-05 22:22 | 34.55877 | 136.78409 | 4961 ft | 270 kts | 71° |
| 2026-05-05 22:22 | 34.56617 | 136.80454 | 4830 ft | 258 kts | 70° |
| 2026-05-05 22:23 | 34.57326 | 136.82402 | 4727 ft | 246 kts | 70° |
| 2026-05-05 22:23 | 34.58005 | 136.84254 | 4623 ft | 235 kts | 70° |
| 2026-05-05 22:23 | 34.58952 | 136.85827 | 4502 ft | 231 kts | 39° |
| 2026-05-05 22:23 | 34.60424 | 136.86477 | 4448 ft | 223 kts | 6° |
| 2026-05-05 22:24 | 34.61909 | 136.86346 | 4465 ft | 206 kts | 347° |
| 2026-05-05 22:24 | 34.63249 | 136.85959 | 4384 ft | 193 kts | 347° |
| 2026-05-05 22:24 | 34.64561 | 136.85640 | 4138 ft | 191 kts | 349° |
| 2026-05-05 22:24 | 34.65874 | 136.85338 | 3828 ft | 193 kts | 349° |
| 2026-05-05 22:25 | 34.67202 | 136.85018 | 3499 ft | 196 kts | 348° |
| 2026-05-05 22:25 | 34.68546 | 136.84694 | 3183 ft | 196 kts | 348° |
| 2026-05-05 22:25 | 34.69839 | 136.84384 | 2910 ft | 188 kts | 348° |
| 2026-05-05 22:25 | 34.71090 | 136.84083 | 2663 ft | 179 kts | 348° |
| 2026-05-05 22:26 | 34.72295 | 136.83793 | 2425 ft | 170 kts | 349° |
| 2026-05-05 22:26 | 34.73436 | 136.83520 | 2209 ft | 169 kts | 350° |
| 2026-05-05 22:26 | 34.74606 | 136.83239 | 1979 ft | 169 kts | 351° |
| 2026-05-05 22:26 | 34.75723 | 136.82971 | 1746 ft | 162 kts | 351° |
| 2026-05-05 22:27 | 34.76794 | 136.82713 | 1529 ft | 152 kts | 351° |
| 2026-05-05 22:27 | 34.77808 | 136.82470 | 1339 ft | 147 kts | 351° |
| 2026-05-05 22:27 | 34.78805 | 136.82231 | 1143 ft | 145 kts | 351° |
| 2026-05-05 22:27 | 34.79793 | 136.81992 | 951 ft | 144 kts | 351° |
| 2026-05-05 22:28 | 34.80772 | 136.81751 | 752 ft | 141 kts | 351° |
| 2026-05-05 22:28 | 34.81729 | 136.81528 | 582 ft | 139 kts | 352° |
| 2026-05-05 22:28 | 34.82673 | 136.81293 | 405 ft | 138 kts | 349° |
| 2026-05-05 22:28 | 34.83612 | 136.81062 | 226 ft | 138 kts | 351° |
| 2026-05-05 22:29 | 34.84548 | 136.80842 | 53 ft | 136 kts | 351° |
| 2026-05-05 22:29 | 34.85394 | 136.80641 | 32 ft | 106 kts | 351° |
| 2026-05-05 22:29 | 34.86022 | 136.80497 | 32 ft | 79 kts | 349° |
| 2026-05-05 22:29 | 34.86440 | 136.80409 | 33 ft | 43 kts | 2° |
| 2026-05-05 22:30 | 34.86646 | 136.80466 | 34 ft | 21 kts | 19° |
| 2026-05-05 22:30 | 34.86688 | 136.80561 | 34 ft | 8 kts | 122° |
| 2026-05-05 22:30 | 34.86638 | 136.80590 | 34 ft | 9 kts | 168° |
| 2026-05-05 22:30 | 34.86563 | 136.80609 | 34 ft | 13 kts | 168° |
| 2026-05-05 22:31 | 34.86467 | 136.80634 | 34 ft | 16 kts | 168° |
| 2026-05-05 22:31 | 34.86352 | 136.80660 | 34 ft | 18 kts | 170° |
| 2026-05-05 22:31 | 34.86220 | 136.80688 | 34 ft | 21 kts | 170° |
| 2026-05-05 22:31 | 34.86100 | 136.80719 | 34 ft | 15 kts | 168° |
| 2026-05-05 22:32 | 34.86037 | 136.80801 | 34 ft | 13 kts | 104° |
| 2026-05-05 22:32 | 34.85964 | 136.80862 | 34 ft | 14 kts | 168° |
| 2026-05-05 22:32 | 34.85859 | 136.80886 | 34 ft | 16 kts | 170° |
| 2026-05-05 22:32 | 34.85740 | 136.80916 | 34 ft | 18 kts | 168° |
| 2026-05-05 22:33 | 34.85706 | 136.80924 | 34 ft | 1 kts | 168° |
| 2026-05-05 22:33 | 34.85669 | 136.80938 | 34 ft | 7 kts | 152° |
| 2026-05-05 22:33 | 34.85652 | 136.80983 | 34 ft | 6 kts | 94° |
| 2026-05-05 22:33 | 34.85661 | 136.81031 | 34 ft | 7 kts | 77° |
| 2026-05-05 22:34 | 34.85676 | 136.81096 | 34 ft | 5 kts | 60° |
| 2026-05-05 22:34 | 34.85705 | 136.81107 | 34 ft | 5 kts | 1° |
| 2026-05-05 22:34 | 34.85743 | 136.81100 | 34 ft | 5 kts | 349° |
| 2026-05-05 22:34 | 34.85755 | 136.81097 | 34 ft | 0 kts | 349° |
| 2026-05-05 22:35 | 34.85764 | 136.81095 | 34 ft | 1 kts | 349° |
| 2026-05-05 22:35 | 34.85765 | 136.81094 | 34 ft | 0 kts | 349° |